sensor_id;sensor_type;location;lat;lon;timestamp;P1;durP1;ratioP1;P2;durP2;ratioP2
13040;SDS011;6587;42.728;23.288;2022-08-19T00:01:49;9.82;;;6.03;;
13040;SDS011;6587;42.728;23.288;2022-08-19T00:04:18;8.77;;;6.13;;
13040;SDS011;6587;42.728;23.288;2022-08-19T00:06:47;6.97;;;5.50;;
13040;SDS011;6587;42.728;23.288;2022-08-19T00:09:15;6.80;;;6.10;;
13040;SDS011;6587;42.728;23.288;2022-08-19T00:11:44;6.00;;;5.40;;
13040;SDS011;6587;42.728;23.288;2022-08-19T00:14:16;7.72;;;5.90;;
13040;SDS011;6587;42.728;23.288;2022-08-19T00:16:44;6.00;;;5.40;;
13040;SDS011;6587;42.728;23.288;2022-08-19T00:19:13;7.68;;;5.53;;
13040;SDS011;6587;42.728;23.288;2022-08-19T00:21:41;6.07;;;5.47;;
13040;SDS011;6587;42.728;23.288;2022-08-19T00:24:09;6.22;;;5.65;;
13040;SDS011;6587;42.728;23.288;2022-08-19T00:26:37;8.10;;;6.15;;
13040;SDS011;6587;42.728;23.288;2022-08-19T00:29:05;7.47;;;5.82;;
13040;SDS011;6587;42.728;23.288;2022-08-19T00:31:35;6.37;;;5.73;;
13040;SDS011;6587;42.728;23.288;2022-08-19T00:34:02;7.50;;;6.00;;
13040;SDS011;6587;42.728;23.288;2022-08-19T00:36:29;6.15;;;5.55;;
13040;SDS011;6587;42.728;23.288;2022-08-19T00:38:58;8.43;;;6.13;;
13040;SDS011;6587;42.728;23.288;2022-08-19T00:41:25;6.10;;;5.50;;
13040;SDS011;6587;42.728;23.288;2022-08-19T00:43:57;6.17;;;5.17;;
13040;SDS011;6587;42.728;23.288;2022-08-19T00:46:30;9.33;;;5.43;;
13040;SDS011;6587;42.728;23.288;2022-08-19T00:48:59;8.47;;;6.13;;
13040;SDS011;6587;42.728;23.288;2022-08-19T00:51:27;7.50;;;5.70;;
13040;SDS011;6587;42.728;23.288;2022-08-19T00:53:57;8.17;;;5.60;;
13040;SDS011;6587;42.728;23.288;2022-08-19T00:56:25;6.80;;;5.60;;
13040;SDS011;6587;42.728;23.288;2022-08-19T00:58:53;6.93;;;5.40;;
13040;SDS011;6587;42.728;23.288;2022-08-19T01:01:32;6.60;;;5.60;;
13040;SDS011;6587;42.728;23.288;2022-08-19T01:04:01;7.33;;;5.67;;
13040;SDS011;6587;42.728;23.288;2022-08-19T01:06:28;8.10;;;6.27;;
13040;SDS011;6587;42.728;23.288;2022-08-19T01:08:57;8.23;;;6.07;;
13040;SDS011;6587;42.728;23.288;2022-08-19T01:11:24;8.20;;;6.50;;
13040;SDS011;6587;42.728;23.288;2022-08-19T01:13:52;7.57;;;5.90;;
13040;SDS011;6587;42.728;23.288;2022-08-19T01:16:20;6.60;;;5.90;;
13040;SDS011;6587;42.728;23.288;2022-08-19T01:18:50;9.07;;;6.67;;
13040;SDS011;6587;42.728;23.288;2022-08-19T01:21:20;7.90;;;6.10;;
13040;SDS011;6587;42.728;23.288;2022-08-19T01:23:52;8.43;;;6.53;;
13040;SDS011;6587;42.728;23.288;2022-08-19T01:26:20;7.77;;;6.57;;
13040;SDS011;6587;42.728;23.288;2022-08-19T01:28:49;6.93;;;6.23;;
13040;SDS011;6587;42.728;23.288;2022-08-19T01:31:20;7.70;;;6.70;;
13040;SDS011;6587;42.728;23.288;2022-08-19T01:33:49;8.33;;;6.90;;
13040;SDS011;6587;42.728;23.288;2022-08-19T01:36:22;11.17;;;7.17;;
13040;SDS011;6587;42.728;23.288;2022-08-19T01:38:53;8.20;;;7.13;;
13040;SDS011;6587;42.728;23.288;2022-08-19T01:41:20;9.00;;;7.30;;
13040;SDS011;6587;42.728;23.288;2022-08-19T01:43:48;11.27;;;7.43;;
13040;SDS011;6587;42.728;23.288;2022-08-19T01:46:15;8.67;;;7.40;;
13040;SDS011;6587;42.728;23.288;2022-08-19T01:48:45;9.67;;;7.67;;
13040;SDS011;6587;42.728;23.288;2022-08-19T01:51:12;11.07;;;7.57;;
13040;SDS011;6587;42.728;23.288;2022-08-19T01:53:39;9.07;;;7.70;;
13040;SDS011;6587;42.728;23.288;2022-08-19T01:56:08;10.77;;;8.10;;
13040;SDS011;6587;42.728;23.288;2022-08-19T01:58:36;8.87;;;7.93;;
13040;SDS011;6587;42.728;23.288;2022-08-19T02:01:07;9.13;;;7.93;;
13040;SDS011;6587;42.728;23.288;2022-08-19T02:03:34;9.53;;;8.00;;
13040;SDS011;6587;42.728;23.288;2022-08-19T02:06:02;10.33;;;8.03;;
13040;SDS011;6587;42.728;23.288;2022-08-19T02:08:33;12.40;;;8.07;;
13040;SDS011;6587;42.728;23.288;2022-08-19T02:11:03;10.97;;;8.43;;
13040;SDS011;6587;42.728;23.288;2022-08-19T02:13:32;11.73;;;8.20;;
13040;SDS011;6587;42.728;23.288;2022-08-19T02:16:00;9.03;;;7.60;;
13040;SDS011;6587;42.728;23.288;2022-08-19T02:18:27;8.93;;;7.67;;
13040;SDS011;6587;42.728;23.288;2022-08-19T02:20:54;8.87;;;7.90;;
13040;SDS011;6587;42.728;23.288;2022-08-19T02:23:21;7.97;;;7.17;;
13040;SDS011;6587;42.728;23.288;2022-08-19T02:25:48;10.93;;;8.07;;
13040;SDS011;6587;42.728;23.288;2022-08-19T02:28:15;10.63;;;7.87;;
13040;SDS011;6587;42.728;23.288;2022-08-19T02:30:43;11.07;;;8.40;;
13040;SDS011;6587;42.728;23.288;2022-08-19T02:33:10;8.47;;;7.20;;
13040;SDS011;6587;42.728;23.288;2022-08-19T02:35:40;9.13;;;7.60;;
13040;SDS011;6587;42.728;23.288;2022-08-19T02:38:07;8.53;;;7.43;;
13040;SDS011;6587;42.728;23.288;2022-08-19T02:40:53;12.17;;;7.97;;
13040;SDS011;6587;42.728;23.288;2022-08-19T02:43:22;8.53;;;7.10;;
13040;SDS011;6587;42.728;23.288;2022-08-19T02:45:52;9.83;;;8.23;;
13040;SDS011;6587;42.728;23.288;2022-08-19T02:48:20;10.20;;;7.80;;
13040;SDS011;6587;42.728;23.288;2022-08-19T02:50:50;10.63;;;8.03;;
13040;SDS011;6587;42.728;23.288;2022-08-19T02:53:20;10.80;;;7.27;;
13040;SDS011;6587;42.728;23.288;2022-08-19T02:55:48;11.00;;;8.60;;
13040;SDS011;6587;42.728;23.288;2022-08-19T02:58:16;11.33;;;7.97;;
13040;SDS011;6587;42.728;23.288;2022-08-19T03:00:44;9.07;;;7.80;;
13040;SDS011;6587;42.728;23.288;2022-08-19T03:03:16;9.73;;;7.97;;
13040;SDS011;6587;42.728;23.288;2022-08-19T03:05:44;10.10;;;7.83;;
13040;SDS011;6587;42.728;23.288;2022-08-19T03:08:12;8.43;;;7.57;;
13040;SDS011;6587;42.728;23.288;2022-08-19T03:10:40;8.43;;;7.53;;
13040;SDS011;6587;42.728;23.288;2022-08-19T03:13:10;9.47;;;7.00;;
13040;SDS011;6587;42.728;23.288;2022-08-19T03:15:41;9.10;;;7.27;;
13040;SDS011;6587;42.728;23.288;2022-08-19T03:18:09;7.87;;;7.07;;
13040;SDS011;6587;42.728;23.288;2022-08-19T03:20:41;9.37;;;7.37;;
13040;SDS011;6587;42.728;23.288;2022-08-19T03:23:10;11.33;;;7.30;;
13040;SDS011;6587;42.728;23.288;2022-08-19T03:25:39;8.50;;;7.43;;
13040;SDS011;6587;42.728;23.288;2022-08-19T03:28:08;8.30;;;7.50;;
13040;SDS011;6587;42.728;23.288;2022-08-19T03:30:35;8.90;;;7.53;;
13040;SDS011;6587;42.728;23.288;2022-08-19T03:33:02;8.97;;;8.07;;
13040;SDS011;6587;42.728;23.288;2022-08-19T03:35:31;13.70;;;8.33;;
13040;SDS011;6587;42.728;23.288;2022-08-19T03:37:59;9.40;;;7.80;;
13040;SDS011;6587;42.728;23.288;2022-08-19T03:40:26;11.63;;;8.60;;
13040;SDS011;6587;42.728;23.288;2022-08-19T03:42:55;10.23;;;8.23;;
13040;SDS011;6587;42.728;23.288;2022-08-19T03:45:22;12.73;;;9.10;;
13040;SDS011;6587;42.728;23.288;2022-08-19T03:47:49;12.60;;;8.30;;
13040;SDS011;6587;42.728;23.288;2022-08-19T03:50:17;12.30;;;9.00;;
13040;SDS011;6587;42.728;23.288;2022-08-19T03:52:47;11.30;;;8.70;;
13040;SDS011;6587;42.728;23.288;2022-08-19T03:55:17;10.40;;;8.70;;
13040;SDS011;6587;42.728;23.288;2022-08-19T03:57:44;11.10;;;8.53;;
13040;SDS011;6587;42.728;23.288;2022-08-19T04:00:13;11.50;;;8.83;;
13040;SDS011;6587;42.728;23.288;2022-08-19T04:02:41;10.70;;;9.20;;
13040;SDS011;6587;42.728;23.288;2022-08-19T04:05:09;12.13;;;9.33;;
13040;SDS011;6587;42.728;23.288;2022-08-19T04:07:36;13.53;;;8.60;;
13040;SDS011;6587;42.728;23.288;2022-08-19T04:10:03;11.80;;;9.00;;
13040;SDS011;6587;42.728;23.288;2022-08-19T04:12:32;13.60;;;9.03;;
13040;SDS011;6587;42.728;23.288;2022-08-19T04:14:59;9.73;;;8.70;;
13040;SDS011;6587;42.728;23.288;2022-08-19T04:17:25;14.20;;;9.40;;
13040;SDS011;6587;42.728;23.288;2022-08-19T04:19:53;13.47;;;9.43;;
13040;SDS011;6587;42.728;23.288;2022-08-19T04:22:20;13.10;;;9.20;;
13040;SDS011;6587;42.728;23.288;2022-08-19T04:24:46;12.10;;;8.83;;
13040;SDS011;6587;42.728;23.288;2022-08-19T04:27:13;10.60;;;8.03;;
13040;SDS011;6587;42.728;23.288;2022-08-19T04:29:43;9.87;;;8.57;;
13040;SDS011;6587;42.728;23.288;2022-08-19T04:32:09;12.63;;;8.00;;
13040;SDS011;6587;42.728;23.288;2022-08-19T04:34:37;11.27;;;8.30;;
13040;SDS011;6587;42.728;23.288;2022-08-19T04:37:04;11.27;;;8.03;;
13040;SDS011;6587;42.728;23.288;2022-08-19T04:39:33;9.80;;;8.57;;
13040;SDS011;6587;42.728;23.288;2022-08-19T04:42:17;9.73;;;8.40;;
13040;SDS011;6587;42.728;23.288;2022-08-19T04:45:03;10.87;;;7.93;;
13040;SDS011;6587;42.728;23.288;2022-08-19T04:47:30;12.10;;;8.53;;
13040;SDS011;6587;42.728;23.288;2022-08-19T04:49:58;12.23;;;8.87;;
13040;SDS011;6587;42.728;23.288;2022-08-19T04:52:25;13.00;;;9.33;;
13040;SDS011;6587;42.728;23.288;2022-08-19T04:54:52;12.40;;;9.30;;
13040;SDS011;6587;42.728;23.288;2022-08-19T04:57:20;10.40;;;9.30;;
13040;SDS011;6587;42.728;23.288;2022-08-19T04:59:47;12.57;;;9.30;;
13040;SDS011;6587;42.728;23.288;2022-08-19T05:02:16;10.60;;;9.33;;
13040;SDS011;6587;42.728;23.288;2022-08-19T05:04:43;15.67;;;9.53;;
13040;SDS011;6587;42.728;23.288;2022-08-19T05:07:09;13.37;;;10.17;;
13040;SDS011;6587;42.728;23.288;2022-08-19T05:09:36;15.37;;;9.37;;
13040;SDS011;6587;42.728;23.288;2022-08-19T05:12:03;17.53;;;9.93;;
13040;SDS011;6587;42.728;23.288;2022-08-19T05:14:31;12.57;;;9.00;;
13040;SDS011;6587;42.728;23.288;2022-08-19T05:16:58;10.83;;;9.53;;
13040;SDS011;6587;42.728;23.288;2022-08-19T05:19:26;13.23;;;9.70;;
13040;SDS011;6587;42.728;23.288;2022-08-19T05:22:11;13.83;;;11.10;;
13040;SDS011;6587;42.728;23.288;2022-08-19T05:24:55;11.13;;;9.60;;
13040;SDS011;6587;42.728;23.288;2022-08-19T05:27:22;14.60;;;9.87;;
13040;SDS011;6587;42.728;23.288;2022-08-19T05:29:49;14.03;;;9.97;;
13040;SDS011;6587;42.728;23.288;2022-08-19T05:32:17;14.37;;;9.93;;
13040;SDS011;6587;42.728;23.288;2022-08-19T05:34:45;16.33;;;10.73;;
13040;SDS011;6587;42.728;23.288;2022-08-19T05:37:12;18.47;;;10.47;;
13040;SDS011;6587;42.728;23.288;2022-08-19T05:39:39;13.17;;;10.80;;
13040;SDS011;6587;42.728;23.288;2022-08-19T05:42:08;15.27;;;10.87;;
13040;SDS011;6587;42.728;23.288;2022-08-19T05:44:38;13.23;;;10.50;;
13040;SDS011;6587;42.728;23.288;2022-08-19T05:47:09;15.90;;;10.87;;
13040;SDS011;6587;42.728;23.288;2022-08-19T05:49:38;15.13;;;11.00;;
13040;SDS011;6587;42.728;23.288;2022-08-19T05:52:07;16.60;;;11.37;;
13040;SDS011;6587;42.728;23.288;2022-08-19T05:54:37;17.80;;;12.07;;
13040;SDS011;6587;42.728;23.288;2022-08-19T05:57:05;17.03;;;11.73;;
13040;SDS011;6587;42.728;23.288;2022-08-19T05:59:33;14.37;;;11.23;;
13040;SDS011;6587;42.728;23.288;2022-08-19T06:02:00;12.13;;;10.00;;
13040;SDS011;6587;42.728;23.288;2022-08-19T06:04:29;14.20;;;10.37;;
13040;SDS011;6587;42.728;23.288;2022-08-19T06:06:56;15.57;;;11.43;;
13040;SDS011;6587;42.728;23.288;2022-08-19T06:09:25;12.02;;;9.85;;
13040;SDS011;6587;42.728;23.288;2022-08-19T06:11:52;12.37;;;9.10;;
13040;SDS011;6587;42.728;23.288;2022-08-19T06:14:25;10.67;;;9.57;;
13040;SDS011;6587;42.728;23.288;2022-08-19T06:16:56;11.77;;;9.20;;
13040;SDS011;6587;42.728;23.288;2022-08-19T06:19:25;13.10;;;8.60;;
13040;SDS011;6587;42.728;23.288;2022-08-19T06:21:53;10.45;;;8.77;;
13040;SDS011;6587;42.728;23.288;2022-08-19T06:24:21;11.60;;;8.50;;
13040;SDS011;6587;42.728;23.288;2022-08-19T06:26:52;9.02;;;7.75;;
13040;SDS011;6587;42.728;23.288;2022-08-19T06:29:21;14.90;;;8.00;;
13040;SDS011;6587;42.728;23.288;2022-08-19T06:31:54;13.27;;;8.85;;
13040;SDS011;6587;42.728;23.288;2022-08-19T06:34:23;9.87;;;8.33;;
13040;SDS011;6587;42.728;23.288;2022-08-19T06:36:52;10.48;;;9.38;;
13040;SDS011;6587;42.728;23.288;2022-08-19T06:39:21;13.57;;;8.77;;
13040;SDS011;6587;42.728;23.288;2022-08-19T06:41:52;11.88;;;9.15;;
13040;SDS011;6587;42.728;23.288;2022-08-19T06:44:21;11.23;;;8.88;;
13040;SDS011;6587;42.728;23.288;2022-08-19T06:46:51;10.95;;;8.52;;
13040;SDS011;6587;42.728;23.288;2022-08-19T06:49:18;10.55;;;7.82;;
13040;SDS011;6587;42.728;23.288;2022-08-19T06:51:45;10.98;;;8.05;;
13040;SDS011;6587;42.728;23.288;2022-08-19T06:54:14;15.20;;;8.68;;
13040;SDS011;6587;42.728;23.288;2022-08-19T06:56:41;12.15;;;8.35;;
13040;SDS011;6587;42.728;23.288;2022-08-19T06:59:13;11.65;;;7.78;;
13040;SDS011;6587;42.728;23.288;2022-08-19T07:01:43;11.65;;;7.60;;
13040;SDS011;6587;42.728;23.288;2022-08-19T07:04:12;10.88;;;8.18;;
13040;SDS011;6587;42.728;23.288;2022-08-19T07:06:41;8.52;;;7.65;;
13040;SDS011;6587;42.728;23.288;2022-08-19T07:09:11;8.55;;;7.45;;
13040;SDS011;6587;42.728;23.288;2022-08-19T07:11:41;10.77;;;8.18;;
13040;SDS011;6587;42.728;23.288;2022-08-19T07:14:12;14.10;;;7.50;;
13040;SDS011;6587;42.728;23.288;2022-08-19T07:16:39;10.13;;;7.63;;
13040;SDS011;6587;42.728;23.288;2022-08-19T07:19:06;9.98;;;7.38;;
13040;SDS011;6587;42.728;23.288;2022-08-19T07:21:35;13.35;;;8.45;;
13040;SDS011;6587;42.728;23.288;2022-08-19T07:24:02;11.75;;;8.45;;
13040;SDS011;6587;42.728;23.288;2022-08-19T07:26:30;10.35;;;8.23;;
13040;SDS011;6587;42.728;23.288;2022-08-19T07:28:59;14.43;;;8.52;;
13040;SDS011;6587;42.728;23.288;2022-08-19T07:31:28;12.10;;;8.18;;
13040;SDS011;6587;42.728;23.288;2022-08-19T07:33:55;15.95;;;8.43;;
13040;SDS011;6587;42.728;23.288;2022-08-19T07:36:23;12.73;;;9.45;;
13040;SDS011;6587;42.728;23.288;2022-08-19T07:38:53;12.98;;;7.78;;
13040;SDS011;6587;42.728;23.288;2022-08-19T07:41:23;12.63;;;7.93;;
13040;SDS011;6587;42.728;23.288;2022-08-19T07:43:51;11.20;;;7.95;;
13040;SDS011;6587;42.728;23.288;2022-08-19T07:46:19;13.23;;;7.50;;
13040;SDS011;6587;42.728;23.288;2022-08-19T07:48:48;13.95;;;8.27;;
13040;SDS011;6587;42.728;23.288;2022-08-19T07:51:17;12.40;;;8.65;;
13040;SDS011;6587;42.728;23.288;2022-08-19T07:53:46;11.18;;;8.27;;
13040;SDS011;6587;42.728;23.288;2022-08-19T07:56:15;11.65;;;8.20;;
13040;SDS011;6587;42.728;23.288;2022-08-19T07:58:44;11.50;;;7.57;;
13040;SDS011;6587;42.728;23.288;2022-08-19T08:01:13;11.27;;;7.95;;
13040;SDS011;6587;42.728;23.288;2022-08-19T08:03:41;9.38;;;7.95;;
13040;SDS011;6587;42.728;23.288;2022-08-19T08:06:27;11.52;;;9.18;;
13040;SDS011;6587;42.728;23.288;2022-08-19T08:09:12;11.13;;;8.00;;
13040;SDS011;6587;42.728;23.288;2022-08-19T08:11:47;14.23;;;7.68;;
13040;SDS011;6587;42.728;23.288;2022-08-19T08:14:18;8.77;;;7.55;;
13040;SDS011;6587;42.728;23.288;2022-08-19T08:16:48;12.88;;;7.78;;
13040;SDS011;6587;42.728;23.288;2022-08-19T08:19:16;11.40;;;7.72;;
13040;SDS011;6587;42.728;23.288;2022-08-19T08:21:46;11.30;;;8.07;;
13040;SDS011;6587;42.728;23.288;2022-08-19T08:24:14;10.10;;;8.45;;
13040;SDS011;6587;42.728;23.288;2022-08-19T08:26:41;9.13;;;7.43;;
13040;SDS011;6587;42.728;23.288;2022-08-19T08:29:09;10.93;;;6.95;;
13040;SDS011;6587;42.728;23.288;2022-08-19T08:31:38;11.18;;;7.63;;
13040;SDS011;6587;42.728;23.288;2022-08-19T08:34:06;13.25;;;7.82;;
13040;SDS011;6587;42.728;23.288;2022-08-19T08:36:35;11.25;;;7.25;;
13040;SDS011;6587;42.728;23.288;2022-08-19T08:39:07;10.52;;;7.07;;
13040;SDS011;6587;42.728;23.288;2022-08-19T08:41:37;8.82;;;6.70;;
13040;SDS011;6587;42.728;23.288;2022-08-19T08:44:11;8.38;;;6.80;;
13040;SDS011;6587;42.728;23.288;2022-08-19T08:46:44;10.73;;;7.05;;
13040;SDS011;6587;42.728;23.288;2022-08-19T08:49:20;7.93;;;6.80;;
13040;SDS011;6587;42.728;23.288;2022-08-19T08:51:54;8.43;;;6.88;;
13040;SDS011;6587;42.728;23.288;2022-08-19T08:54:29;11.55;;;7.13;;
13040;SDS011;6587;42.728;23.288;2022-08-19T08:56:59;11.45;;;7.03;;
13040;SDS011;6587;42.728;23.288;2022-08-19T08:59:28;10.20;;;5.85;;
13040;SDS011;6587;42.728;23.288;2022-08-19T09:01:58;11.48;;;7.00;;
13040;SDS011;6587;42.728;23.288;2022-08-19T09:04:25;10.07;;;6.40;;
13040;SDS011;6587;42.728;23.288;2022-08-19T09:06:55;7.13;;;6.10;;
13040;SDS011;6587;42.728;23.288;2022-08-19T09:09:32;8.35;;;5.82;;
13040;SDS011;6587;42.728;23.288;2022-08-19T09:12:04;8.88;;;5.85;;
13040;SDS011;6587;42.728;23.288;2022-08-19T09:14:39;7.90;;;6.90;;
13040;SDS011;6587;42.728;23.288;2022-08-19T09:17:12;6.90;;;5.28;;
13040;SDS011;6587;42.728;23.288;2022-08-19T09:19:46;8.00;;;4.85;;
13040;SDS011;6587;42.728;23.288;2022-08-19T09:22:16;6.13;;;5.10;;
13040;SDS011;6587;42.728;23.288;2022-08-19T09:24:48;8.82;;;5.10;;
13040;SDS011;6587;42.728;23.288;2022-08-19T09:27:17;6.95;;;4.82;;
13040;SDS011;6587;42.728;23.288;2022-08-19T09:29:45;4.80;;;4.35;;
13040;SDS011;6587;42.728;23.288;2022-08-19T09:32:13;4.53;;;4.13;;
13040;SDS011;6587;42.728;23.288;2022-08-19T09:34:40;6.50;;;4.32;;
13040;SDS011;6587;42.728;23.288;2022-08-19T09:37:08;6.32;;;4.60;;
13040;SDS011;6587;42.728;23.288;2022-08-19T09:39:35;6.70;;;4.43;;
13040;SDS011;6587;42.728;23.288;2022-08-19T09:42:05;6.03;;;4.65;;
13040;SDS011;6587;42.728;23.288;2022-08-19T09:44:36;7.30;;;3.97;;
13040;SDS011;6587;42.728;23.288;2022-08-19T09:47:03;8.90;;;4.47;;
13040;SDS011;6587;42.728;23.288;2022-08-19T09:49:31;5.82;;;4.40;;
13040;SDS011;6587;42.728;23.288;2022-08-19T09:51:58;7.97;;;4.30;;
13040;SDS011;6587;42.728;23.288;2022-08-19T09:54:25;4.45;;;4.05;;
13040;SDS011;6587;42.728;23.288;2022-08-19T09:56:52;5.40;;;4.30;;
13040;SDS011;6587;42.728;23.288;2022-08-19T09:59:21;5.90;;;4.63;;
13040;SDS011;6587;42.728;23.288;2022-08-19T10:01:48;5.28;;;4.65;;
13040;SDS011;6587;42.728;23.288;2022-08-19T10:04:16;5.68;;;4.55;;
13040;SDS011;6587;42.728;23.288;2022-08-19T10:06:43;8.75;;;4.40;;
13040;SDS011;6587;42.728;23.288;2022-08-19T10:09:13;4.85;;;4.38;;
13040;SDS011;6587;42.728;23.288;2022-08-19T10:11:43;5.60;;;3.83;;
13040;SDS011;6587;42.728;23.288;2022-08-19T10:14:13;4.38;;;4.07;;
13040;SDS011;6587;42.728;23.288;2022-08-19T10:16:41;5.82;;;3.92;;
13040;SDS011;6587;42.728;23.288;2022-08-19T10:19:08;5.30;;;4.07;;
13040;SDS011;6587;42.728;23.288;2022-08-19T10:21:36;4.43;;;4.03;;
13040;SDS011;6587;42.728;23.288;2022-08-19T10:24:04;5.93;;;4.95;;
13040;SDS011;6587;42.728;23.288;2022-08-19T10:26:32;5.20;;;4.47;;
13040;SDS011;6587;42.728;23.288;2022-08-19T10:29:01;6.85;;;4.60;;
13040;SDS011;6587;42.728;23.288;2022-08-19T10:31:30;4.82;;;4.43;;
13040;SDS011;6587;42.728;23.288;2022-08-19T10:34:00;6.13;;;4.80;;
13040;SDS011;6587;42.728;23.288;2022-08-19T10:36:29;4.90;;;4.47;;
13040;SDS011;6587;42.728;23.288;2022-08-19T10:38:59;5.10;;;4.60;;
13040;SDS011;6587;42.728;23.288;2022-08-19T10:41:29;6.28;;;4.47;;
13040;SDS011;6587;42.728;23.288;2022-08-19T10:43:58;5.47;;;4.43;;
13040;SDS011;6587;42.728;23.288;2022-08-19T10:46:29;5.50;;;4.65;;
13040;SDS011;6587;42.728;23.288;2022-08-19T10:48:57;6.18;;;5.00;;
13040;SDS011;6587;42.728;23.288;2022-08-19T10:51:26;6.50;;;4.85;;
13040;SDS011;6587;42.728;23.288;2022-08-19T10:54:11;4.97;;;4.55;;
13040;SDS011;6587;42.728;23.288;2022-08-19T10:56:38;7.45;;;5.15;;
13040;SDS011;6587;42.728;23.288;2022-08-19T10:59:17;6.80;;;5.18;;
13040;SDS011;6587;42.728;23.288;2022-08-19T11:01:45;6.70;;;5.07;;
13040;SDS011;6587;42.728;23.288;2022-08-19T11:04:12;4.90;;;4.50;;
13040;SDS011;6587;42.728;23.288;2022-08-19T11:06:44;5.43;;;4.63;;
13040;SDS011;6587;42.728;23.288;2022-08-19T11:09:13;5.00;;;4.50;;
13040;SDS011;6587;42.728;23.288;2022-08-19T11:11:40;5.60;;;4.57;;
13040;SDS011;6587;42.728;23.288;2022-08-19T11:14:08;7.95;;;5.07;;
13040;SDS011;6587;42.728;23.288;2022-08-19T11:16:36;5.32;;;4.35;;
13040;SDS011;6587;42.728;23.288;2022-08-19T11:19:04;5.32;;;4.30;;
13040;SDS011;6587;42.728;23.288;2022-08-19T11:21:34;7.40;;;4.65;;
13040;SDS011;6587;42.728;23.288;2022-08-19T11:24:04;5.00;;;4.50;;
13040;SDS011;6587;42.728;23.288;2022-08-19T11:26:34;6.32;;;5.18;;
13040;SDS011;6587;42.728;23.288;2022-08-19T11:29:03;6.35;;;4.60;;
13040;SDS011;6587;42.728;23.288;2022-08-19T11:31:32;8.18;;;5.70;;
13040;SDS011;6587;42.728;23.288;2022-08-19T11:34:02;5.63;;;4.75;;
13040;SDS011;6587;42.728;23.288;2022-08-19T11:36:31;5.35;;;4.78;;
13040;SDS011;6587;42.728;23.288;2022-08-19T11:38:58;5.03;;;4.45;;
13040;SDS011;6587;42.728;23.288;2022-08-19T11:41:27;5.53;;;4.70;;
13040;SDS011;6587;42.728;23.288;2022-08-19T11:43:54;6.95;;;4.70;;
13040;SDS011;6587;42.728;23.288;2022-08-19T11:46:23;5.43;;;4.93;;
13040;SDS011;6587;42.728;23.288;2022-08-19T11:48:54;6.47;;;4.43;;
13040;SDS011;6587;42.728;23.288;2022-08-19T11:51:22;5.68;;;5.18;;
13040;SDS011;6587;42.728;23.288;2022-08-19T11:53:51;7.00;;;5.10;;
13040;SDS011;6587;42.728;23.288;2022-08-19T11:56:18;7.85;;;4.90;;
13040;SDS011;6587;42.728;23.288;2022-08-19T11:58:47;6.07;;;4.78;;
13040;SDS011;6587;42.728;23.288;2022-08-19T12:01:15;5.80;;;5.13;;
13040;SDS011;6587;42.728;23.288;2022-08-19T12:03:45;5.30;;;4.85;;
13040;SDS011;6587;42.728;23.288;2022-08-19T12:06:17;7.20;;;5.20;;
13040;SDS011;6587;42.728;23.288;2022-08-19T12:08:48;6.75;;;4.70;;
13040;SDS011;6587;42.728;23.288;2022-08-19T12:11:15;5.70;;;5.20;;
13040;SDS011;6587;42.728;23.288;2022-08-19T12:13:43;7.15;;;4.97;;
13040;SDS011;6587;42.728;23.288;2022-08-19T12:16:14;6.88;;;4.95;;
13040;SDS011;6587;42.728;23.288;2022-08-19T12:18:43;6.53;;;4.93;;
13040;SDS011;6587;42.728;23.288;2022-08-19T12:21:11;5.30;;;4.85;;
13040;SDS011;6587;42.728;23.288;2022-08-19T12:23:39;7.35;;;4.90;;
13040;SDS011;6587;42.728;23.288;2022-08-19T12:26:06;6.55;;;4.57;;
13040;SDS011;6587;42.728;23.288;2022-08-19T12:28:35;5.45;;;4.95;;
13040;SDS011;6587;42.728;23.288;2022-08-19T12:31:02;5.97;;;5.25;;
13040;SDS011;6587;42.728;23.288;2022-08-19T12:33:30;7.38;;;4.57;;
13040;SDS011;6587;42.728;23.288;2022-08-19T12:36:00;8.15;;;4.70;;
13040;SDS011;6587;42.728;23.288;2022-08-19T12:38:29;5.95;;;4.35;;
13040;SDS011;6587;42.728;23.288;2022-08-19T12:40:57;5.47;;;4.43;;
13040;SDS011;6587;42.728;23.288;2022-08-19T12:43:24;6.63;;;4.70;;
13040;SDS011;6587;42.728;23.288;2022-08-19T12:45:51;5.10;;;4.50;;
13040;SDS011;6587;42.728;23.288;2022-08-19T12:48:18;13.23;;;5.60;;
13040;SDS011;6587;42.728;23.288;2022-08-19T12:50:46;6.70;;;5.00;;
13040;SDS011;6587;42.728;23.288;2022-08-19T12:53:13;6.38;;;4.60;;
13040;SDS011;6587;42.728;23.288;2022-08-19T12:55:41;5.75;;;4.40;;
13040;SDS011;6587;42.728;23.288;2022-08-19T12:58:08;9.00;;;4.80;;
13040;SDS011;6587;42.728;23.288;2022-08-19T13:00:37;5.57;;;5.03;;
13040;SDS011;6587;42.728;23.288;2022-08-19T13:03:04;5.60;;;5.00;;
13040;SDS011;6587;42.728;23.288;2022-08-19T13:05:32;7.82;;;4.72;;
13040;SDS011;6587;42.728;23.288;2022-08-19T13:08:01;8.25;;;4.50;;
13040;SDS011;6587;42.728;23.288;2022-08-19T13:10:28;4.82;;;4.30;;
13040;SDS011;6587;42.728;23.288;2022-08-19T13:13:00;6.22;;;4.72;;
13040;SDS011;6587;42.728;23.288;2022-08-19T13:15:28;8.85;;;4.65;;
13040;SDS011;6587;42.728;23.288;2022-08-19T13:17:56;8.27;;;4.50;;
13040;SDS011;6587;42.728;23.288;2022-08-19T13:20:24;5.90;;;4.68;;
13040;SDS011;6587;42.728;23.288;2022-08-19T13:22:51;4.82;;;4.28;;
13040;SDS011;6587;42.728;23.288;2022-08-19T13:25:20;8.57;;;4.40;;
13040;SDS011;6587;42.728;23.288;2022-08-19T13:27:47;5.50;;;4.38;;
13040;SDS011;6587;42.728;23.288;2022-08-19T13:30:16;8.23;;;4.63;;
13040;SDS011;6587;42.728;23.288;2022-08-19T13:33:02;6.57;;;4.43;;
13040;SDS011;6587;42.728;23.288;2022-08-19T13:35:40;5.38;;;4.78;;
13040;SDS011;6587;42.728;23.288;2022-08-19T13:38:11;7.40;;;4.78;;
13040;SDS011;6587;42.728;23.288;2022-08-19T13:40:41;7.72;;;5.15;;
13040;SDS011;6587;42.728;23.288;2022-08-19T13:43:08;6.15;;;4.50;;
13040;SDS011;6587;42.728;23.288;2022-08-19T13:45:35;7.40;;;5.07;;
13040;SDS011;6587;42.728;23.288;2022-08-19T13:48:03;7.57;;;4.45;;
13040;SDS011;6587;42.728;23.288;2022-08-19T13:50:34;5.18;;;4.60;;
13040;SDS011;6587;42.728;23.288;2022-08-19T13:53:04;8.90;;;7.18;;
13040;SDS011;6587;42.728;23.288;2022-08-19T13:55:31;7.72;;;5.35;;
13040;SDS011;6587;42.728;23.288;2022-08-19T13:57:59;7.68;;;5.13;;
13040;SDS011;6587;42.728;23.288;2022-08-19T14:00:27;7.43;;;5.18;;
13040;SDS011;6587;42.728;23.288;2022-08-19T14:02:56;7.38;;;5.43;;
13040;SDS011;6587;42.728;23.288;2022-08-19T14:05:24;5.75;;;5.18;;
13040;SDS011;6587;42.728;23.288;2022-08-19T14:07:52;7.05;;;4.72;;
13040;SDS011;6587;42.728;23.288;2022-08-19T14:10:19;6.65;;;5.05;;
13040;SDS011;6587;42.728;23.288;2022-08-19T14:12:46;8.80;;;6.25;;
13040;SDS011;6587;42.728;23.288;2022-08-19T14:15:15;5.20;;;4.70;;
13040;SDS011;6587;42.728;23.288;2022-08-19T14:17:43;6.63;;;4.80;;
13040;SDS011;6587;42.728;23.288;2022-08-19T14:20:12;7.70;;;5.40;;
13040;SDS011;6587;42.728;23.288;2022-08-19T14:22:41;7.07;;;5.50;;
13040;SDS011;6587;42.728;23.288;2022-08-19T14:25:10;10.65;;;5.30;;
13040;SDS011;6587;42.728;23.288;2022-08-19T14:27:39;7.72;;;4.90;;
13040;SDS011;6587;42.728;23.288;2022-08-19T14:30:08;5.63;;;4.63;;
13040;SDS011;6587;42.728;23.288;2022-08-19T14:32:37;5.88;;;4.85;;
13040;SDS011;6587;42.728;23.288;2022-08-19T14:35:04;7.35;;;4.68;;
13040;SDS011;6587;42.728;23.288;2022-08-19T14:37:33;6.88;;;5.55;;
13040;SDS011;6587;42.728;23.288;2022-08-19T14:40:00;7.55;;;5.07;;
13040;SDS011;6587;42.728;23.288;2022-08-19T14:42:27;7.25;;;5.18;;
13040;SDS011;6587;42.728;23.288;2022-08-19T14:44:56;7.50;;;4.45;;
13040;SDS011;6587;42.728;23.288;2022-08-19T14:47:24;8.80;;;5.38;;
13040;SDS011;6587;42.728;23.288;2022-08-19T14:49:53;7.13;;;5.03;;
13040;SDS011;6587;42.728;23.288;2022-08-19T14:52:20;5.75;;;5.07;;
13040;SDS011;6587;42.728;23.288;2022-08-19T14:54:47;6.70;;;4.72;;